Terminal Aerodrome Forecast
Issued by NWS

Home | Current Version | Previous Version | Text Only | Print | Product List | Glossary On
Versions: 1 2 3 4 5 6 7 8 9 10 11 12 13 14 15 16 17 18 19 20 21 22 23 24 25
000
FTUS43 KAPX 231720
TAFTVC
TAF
KTVC 231720Z 2318/2418 02006KT P6SM VCSH BKN025 BKN050
      TEMPO 2320/2324 5SM -SHRA
     FM240200 VRB03KT P6SM -SHRA SCT015 OVC025
     FM240600 VRB03KT P6SM -SHRA SCT008 OVC015
     FM241400 06008KT P6SM SCT015 OVC025=

USA.gov is the U.S. government's official web portal to all federal, state and local government web resources and services.